Time;durP1;ratioP1;P1;durP2;ratioP2;P2;SDS_P1;SDS_P2;PMS_P1;PMS_P2;Temp;Humidity;BMP_temperature;BMP_pressure;BME280_temperature;BME280_humidity;BME280_pressure;Samples;Min_cycle;Max_cycle;Signal;HPM_P1;HPM_P2
2022/04/10 00:01:49;;;;;;;5.25;4.28;;;;;;;6.41;70.05;100178.00;4990006;28;20254;-63
2022/04/10 00:04:33;;;;;;;5.13;3.63;;;;;;;6.40;69.74;100187.44;4976903;28;20058;-63
2022/04/10 00:07:17;;;;;;;6.32;4.70;;;;;;;6.41;69.40;100183.13;4976056;28;20077;-63
2022/04/10 00:10:01;;;;;;;5.70;4.88;;;;;;;6.41;70.06;100193.44;4977264;28;20049;-63
2022/04/10 00:12:45;;;;;;;5.70;4.65;;;;;;;6.40;69.65;100190.00;4976276;28;20054;-63
2022/04/10 00:15:28;;;;;;;5.75;3.88;;;;;;;6.39;69.47;100192.50;4976455;28;20065;-63
2022/04/10 00:18:13;;;;;;;7.55;4.15;;;;;;;6.38;69.44;100189.06;4976584;28;20130;-63
2022/04/10 00:20:56;;;;;;;4.93;4.30;;;;;;;6.37;69.40;100184.75;4976585;28;20065;-63
2022/04/10 00:23:40;;;;;;;5.38;4.53;;;;;;;6.36;69.87;100182.13;4976791;28;20134;-64
2022/04/10 00:26:25;;;;;;;6.40;4.43;;;;;;;6.37;69.50;100189.03;4977005;28;20050;-64
2022/04/10 00:29:09;;;;;;;;;;;;;;;6.35;69.75;100182.94;4976654;28;20045;-64
2022/04/10 00:31:52;;;;;;;5.28;4.47;;;;;;;6.33;69.37;100169.13;4977078;28;19921;-63
2022/04/10 00:34:36;;;;;;;6.18;4.72;;;;;;;6.34;69.64;100174.31;4976337;28;20478;-63
2022/04/10 00:37:21;;;;;;;6.32;4.38;;;;;;;6.35;69.70;100178.66;4976229;28;20101;-63
2022/04/10 00:40:07;;;;;;;5.82;4.53;;;;;;;6.33;69.42;100170.00;4976505;28;20078;-63
2022/04/10 00:42:51;;;;;;;7.65;4.60;;;;;;;6.36;69.79;100174.41;4975488;28;20134;-63
2022/04/10 00:45:35;;;;;;;;;;;;;;;6.33;69.98;100175.16;4975554;28;20054;-63
2022/04/10 00:48:20;;;;;;;5.53;4.97;;;;;;;6.32;69.99;100175.97;4976229;28;19921;-63
2022/04/10 00:54:15;;;;;;;7.07;4.63;;;;;;;6.31;69.92;100165.63;4976455;28;20422;-63
2022/04/10 00:57:01;;;;;;;6.22;4.53;;;;;;;6.31;69.99;100168.19;4975202;28;20050;-64
2022/04/10 00:59:46;;;;;;;5.55;4.30;;;;;;;6.30;69.89;100166.44;4988855;28;20054;-63
2022/04/10 01:02:29;;;;;;;6.03;4.93;;;;;;;6.30;69.78;100172.50;4987405;28;20101;-63
2022/04/10 01:05:13;;;;;;;9.18;5.85;;;;;;;6.29;69.61;100172.41;4995757;28;20136;-64
2022/04/10 01:07:57;;;;;;;7.13;5.18;;;;;;;6.27;69.72;100169.81;4980995;28;20104;-63
2022/04/10 01:10:42;;;;;;;7.07;4.63;;;;;;;6.27;69.67;100174.06;4995259;28;20053;-63
2022/04/10 01:13:26;;;;;;;4.78;4.30;;;;;;;6.27;69.67;100180.09;4980810;28;20084;-63
2022/04/10 01:16:10;;;;;;;7.68;5.45;;;;;;;6.27;70.06;100174.06;4995277;28;20134;-64
2022/04/10 01:18:55;;;;;;;5.25;4.68;;;;;;;6.25;69.68;100171.44;4980677;28;20053;-63
2022/04/10 01:21:46;;;;;;;6.25;4.85;;;;;;;6.25;69.76;100182.59;4980365;28;20206;-63
2022/04/10 01:24:31;;;;;;;6.55;4.30;;;;;;;6.22;70.03;100177.38;4981036;28;20053;-63
2022/04/10 01:27:15;;;;;;;8.00;4.93;;;;;;;6.22;69.69;100181.63;4980848;28;20567;-64
2022/04/10 01:30:00;;;;;;;7.82;5.57;;;;;;;6.22;69.89;100189.34;4995264;28;20053;-64
2022/04/10 01:32:44;;;;;;;6.05;4.75;;;;;;;6.22;69.55;100187.66;4980175;28;20069;-63
2022/04/10 01:35:28;;;;;;;10.65;5.53;;;;;;;6.21;69.97;100192.72;4995090;28;20101;-64
2022/04/10 01:38:13;;;;;;;5.90;5.22;;;;;;;6.19;69.89;100189.22;4994816;28;20070;-63
2022/04/10 01:40:56;;;;;;;6.70;6.05;;;;;;;6.18;69.77;100187.47;4994467;28;20050;-63
2022/04/10 01:43:48;;;;;;;6.13;5.53;;;;;;;6.16;70.00;100194.25;4995097;28;20453;-64
2022/04/10 01:46:32;;;;;;;5.85;5.18;;;;;;;6.14;70.04;100194.22;4980191;28;20122;-64
2022/04/10 01:49:16;;;;;;;6.53;5.68;;;;;;;6.13;70.12;100189.88;4979664;28;20061;-63
2022/04/10 01:52:00;;;;;;;7.40;5.60;;;;;;;6.15;69.57;100189.97;4980234;28;20097;-63
2022/04/10 01:54:44;;;;;;;8.07;5.05;;;;;;;6.15;69.39;100193.41;4994537;28;20093;-63
2022/04/10 01:57:28;;;;;;;7.20;5.28;;;;;;;6.15;69.93;100190.81;4979457;28;20049;-63
2022/04/10 02:00:12;;;;;;;8.25;5.95;;;;;;;6.16;69.44;100186.53;4994342;28;20048;-63
2022/04/10 02:02:56;;;;;;;6.63;4.57;;;;;;;6.15;69.94;100187.38;4994409;28;20093;-63
2022/04/10 02:05:40;;;;;;;9.70;6.15;;;;;;;6.15;69.50;100185.66;4980087;28;20050;-63
2022/04/10 02:08:24;;;;;;;7.63;4.90;;;;;;;6.15;70.28;100180.53;4994058;28;20053;-63
2022/04/10 02:11:12;;;;;;;8.15;5.32;;;;;;;6.15;70.02;100180.53;4980250;28;20449;-63
2022/04/10 02:13:56;;;;;;;8.73;4.82;;;;;;;6.15;69.70;100164.22;4994350;28;20056;-64
2022/04/10 02:16:40;;;;;;;6.60;5.20;;;;;;;6.16;70.17;100176.25;4994435;28;20053;-63
2022/04/10 02:19:25;;;;;;;6.05;4.82;;;;;;;6.16;69.66;100166.84;4994527;28;20057;-63
2022/04/10 02:22:08;;;;;;;7.18;5.53;;;;;;;6.16;70.34;100178.81;4979587;28;20152;-63
2022/04/10 02:24:53;;;;;;;7.97;5.13;;;;;;;6.17;70.18;100180.56;4979391;28;20046;-63
2022/04/10 02:27:37;;;;;;;7.55;5.78;;;;;;;6.15;70.36;100182.25;4994344;28;20508;-63
2022/04/10 02:30:22;;;;;;;8.27;5.43;;;;;;;6.16;69.96;100179.72;4994286;28;20134;-63
2022/04/10 02:33:06;;;;;;;6.65;4.97;;;;;;;6.17;70.09;100183.13;4994186;28;20501;-64
2022/04/10 02:35:50;;;;;;;7.05;4.72;;;;;;;6.17;70.04;100188.28;4994398;28;20049;-64
2022/04/10 02:38:34;;;;;;;6.57;4.78;;;;;;;6.16;69.91;100181.38;4994349;28;20061;-64
2022/04/10 02:41:17;;;;;;;6.55;4.97;;;;;;;6.15;69.91;100189.97;4993691;28;20065;-63
2022/04/10 02:44:01;;;;;;;8.90;5.75;;;;;;;6.16;70.17;100186.53;4994344;28;20189;-63
2022/04/10 02:46:45;;;;;;;9.75;5.75;;;;;;;6.16;70.27;100186.53;4979585;28;20125;-63
2022/04/10 02:49:29;;;;;;;8.65;5.55;;;;;;;6.17;70.14;100183.13;4994309;28;20509;-63
2022/04/10 02:52:13;;;;;;;7.00;5.68;;;;;;;6.16;70.35;100194.25;4993826;28;20129;-63
2022/04/10 02:54:57;;;;;;;9.65;5.43;;;;;;;6.15;70.11;100184.81;4993791;28;20529;-63
2022/04/10 02:57:41;;;;;;;9.25;5.35;;;;;;;6.15;70.20;100190.81;4994308;28;20045;-64
2022/04/10 03:00:25;;;;;;;9.77;5.65;;;;;;;6.15;70.32;100184.81;4993544;28;20057;-63
2022/04/10 03:03:08;;;;;;;8.50;5.45;;;;;;;6.14;70.14;100190.78;4993616;28;20057;-64
2022/04/10 03:05:52;;;;;;;9.73;7.03;;;;;;;6.14;70.00;100190.78;4994126;28;20050;-64
2022/04/10 03:08:36;;;;;;;8.90;6.07;;;;;;;6.13;70.22;100195.03;4994908;28;20540;-63
2022/04/10 03:11:20;;;;;;;9.27;6.20;;;;;;;6.12;70.28;100200.13;4997899;28;20050;-63
2022/04/10 03:14:04;;;;;;;9.05;5.22;;;;;;;6.13;70.34;100201.88;4997270;28;20108;-63
2022/04/10 03:16:48;;;;;;;6.82;5.45;;;;;;;6.11;70.49;100198.38;4982508;28;20081;-63
2022/04/10 03:19:33;;;;;;;8.35;5.18;;;;;;;6.12;70.52;100200.13;4983073;28;20422;-63
2022/04/10 03:22:16;;;;;;;9.80;5.82;;;;;;;6.09;70.17;100204.34;4997938;28;20049;-64
2022/04/10 03:25:00;;;;;;;12.15;7.60;;;;;;;6.11;69.94;100214.69;4997829;28;20049;-63
2022/04/10 03:27:44;;;;;;;12.30;7.32;;;;;;;6.08;70.13;100204.28;4997801;28;20050;-63
2022/04/10 03:30:28;;;;;;;9.65;6.85;;;;;;;6.07;70.35;100211.13;4997553;28;20410;-63
2022/04/10 03:33:13;;;;;;;9.68;6.43;;;;;;;6.07;70.35;100211.13;4997713;28;20054;-64
2022/04/10 03:35:58;;;;;;;9.93;6.60;;;;;;;6.08;70.26;100225.75;4997092;28;20068;-63
2022/04/10 03:38:42;;;;;;;8.25;5.80;;;;;;;6.07;70.16;100218.84;4996431;28;20504;-63
2022/04/10 03:41:26;;;;;;;11.70;7.85;;;;;;;6.07;70.09;100217.97;4997135;28;20523;-64
2022/04/10 03:44:09;;;;;;;7.72;6.00;;;;;;;6.06;70.01;100217.09;4982549;28;20552;-63
2022/04/10 03:46:53;;;;;;;9.55;6.95;;;;;;;6.06;70.27;100217.09;4982503;28;20157;-63
2022/04/10 03:49:37;;;;;;;10.80;6.30;;;;;;;6.04;70.17;100223.88;4997152;28;20046;-63
2022/04/10 03:52:21;;;;;;;9.40;6.75;;;;;;;6.05;70.14;100220.47;4997228;28;20053;-64
2022/04/10 03:55:06;;;;;;;12.27;8.18;;;;;;;6.06;70.62;100226.53;4997046;28;20045;-64
2022/04/10 03:57:49;;;;;;;;;;;;;;;6.05;70.57;100227.34;4997306;28;20077;-63
2022/04/10 04:00:34;;;;;;;9.60;7.38;;;;;;;6.05;70.70;100235.91;4996319;28;19936;-63
2022/04/10 04:03:18;;;;;;;8.70;7.18;;;;;;;6.04;70.42;100223.00;4996933;28;20537;-63
2022/04/10 04:06:02;;;;;;;;;;;;;;;6.04;70.74;100233.31;4996950;28;20124;-63
2022/04/10 04:08:46;;;;;;;10.60;8.30;;;;;;;6.01;69.89;100231.47;4997026;28;19924;-63
2022/04/10 04:11:30;;;;;;;13.57;8.07;;;;;;;6.01;70.67;100231.47;4996625;28;20100;-63
2022/04/10 04:14:14;;;;;;;12.00;8.10;;;;;;;6.01;70.54;100235.75;4996509;28;20052;-63
2022/04/10 04:16:59;;;;;;;11.18;7.95;;;;;;;6.00;70.28;100237.44;4982175;28;20133;-63
2022/04/10 04:19:42;;;;;;;;;;;;;;;6.00;70.26;100236.56;4996657;28;20053;-64
2022/04/10 04:22:26;;;;;;;12.15;8.40;;;;;;;5.98;70.18;100233.03;4996617;28;19925;-63
2022/04/10 04:25:10;;;;;;;11.00;7.55;;;;;;;5.99;70.13;100230.53;4982067;28;20045;-63
2022/04/10 04:27:54;;;;;;;11.05;7.57;;;;;;;5.98;70.17;100228.78;4981618;28;20104;-63
2022/04/10 04:30:38;;;;;;;8.95;7.20;;;;;;;5.99;70.53;100227.06;4982164;28;20053;-62
2022/04/10 04:33:22;;;;;;;10.57;7.13;;;;;;;5.98;70.50;100231.34;4996386;28;20096;-63
2022/04/10 04:36:06;;;;;;;10.35;8.05;;;;;;;5.99;70.39;100237.34;4996589;28;20559;-63
2022/04/10 04:38:50;;;;;;;9.15;8.15;;;;;;;5.98;70.25;100239.06;4996441;28;20052;-63
2022/04/10 04:41:34;;;;;;;10.02;8.07;;;;;;;5.98;70.69;100239.06;4995879;28;20573;-63
2022/04/10 04:44:18;;;;;;;11.63;7.50;;;;;;;5.99;70.60;100238.25;4996423;28;20057;-65
2022/04/10 04:47:02;;;;;;;9.25;7.45;;;;;;;6.00;70.38;100241.72;4995886;28;20044;-63
2022/04/10 04:49:46;;;;;;;12.77;9.88;;;;;;;5.98;70.31;100243.31;4996166;28;20053;-63
2022/04/10 04:52:30;;;;;;;11.52;8.27;;;;;;;5.99;70.18;100257.94;4995737;28;20077;-63
2022/04/10 04:55:14;;;;;;;11.20;8.05;;;;;;;5.99;70.48;100251.13;4995914;28;20085;-63
2022/04/10 04:57:58;;;;;;;13.80;8.07;;;;;;;5.99;70.69;100256.25;4995410;28;20096;-64
2022/04/10 05:00:42;;;;;;;12.95;7.95;;;;;;;6.00;70.73;100262.31;4995998;28;20089;-64
2022/04/10 05:03:26;;;;;;;11.63;7.75;;;;;;;6.00;70.84;100260.59;4975316;28;20069;-63
2022/04/10 05:06:10;;;;;;;11.48;8.02;;;;;;;6.00;70.47;100263.16;4975548;28;20050;-63
2022/04/10 05:08:53;;;;;;;10.60;8.27;;;;;;;5.99;70.48;100261.41;4976102;28;20057;-63
2022/04/10 05:11:38;;;;;;;10.70;7.38;;;;;;;5.99;70.57;100271.69;4976093;28;20085;-63
2022/04/10 05:14:22;;;;;;;10.50;7.28;;;;;;;5.99;70.68;100275.94;4974914;28;20050;-63
2022/04/10 05:17:05;;;;;;;13.35;7.63;;;;;;;5.99;70.67;100276.84;4975771;28;20097;-64
2022/04/10 05:19:49;;;;;;;11.27;7.18;;;;;;;5.98;70.96;100272.50;4976037;28;20138;-63
2022/04/10 05:22:33;;;;;;;13.40;7.95;;;;;;;6.00;70.54;100290.59;4976254;28;20061;-64
2022/04/10 05:25:18;;;;;;;10.13;7.88;;;;;;;5.99;70.85;100287.13;4974904;28;20134;-64
2022/04/10 05:28:02;;;;;;;10.45;8.07;;;;;;;6.00;70.67;100291.47;4975840;28;20471;-64
2022/04/10 05:30:46;;;;;;;;;;;;;;;5.99;71.20;100291.38;4976248;28;20216;-63
2022/04/10 05:33:34;;;;;;;11.07;7.82;;;;;;;5.97;70.93;100291.34;4975524;28;19921;-63
2022/04/10 05:36:18;;;;;;;10.52;7.32;;;;;;;5.97;71.01;100295.59;4975619;28;20125;-63
2022/04/10 05:39:02;;;;;;;9.77;7.95;;;;;;;5.94;70.76;100301.50;4975966;28;20057;-63
2022/04/10 05:41:45;;;;;;;11.20;8.38;;;;;;;5.92;71.04;100298.84;4974354;28;20513;-63
2022/04/10 05:44:29;;;;;;;12.02;9.48;;;;;;;5.93;70.52;100308.34;4975609;28;20411;-63
2022/04/10 05:47:13;;;;;;;10.73;8.45;;;;;;;5.93;70.59;100310.91;4975188;28;20054;-64
2022/04/10 05:49:57;;;;;;;10.23;7.57;;;;;;;5.92;71.08;100309.16;4974976;28;20062;-63
2022/04/10 05:52:43;;;;;;;;;;;;;;;5.93;70.40;100315.19;4974949;28;20517;-63
2022/04/10 05:55:28;;;;;;;10.27;8.13;;;;;;;5.91;70.95;100310.00;4974680;28;19921;-63
2022/04/10 05:58:12;;;;;;;10.23;7.65;;;;;;;5.91;71.10;100324.53;4974021;28;20053;-63
2022/04/10 06:00:56;;;;;;;10.02;8.25;;;;;;;5.91;70.65;100320.28;4975041;28;20097;-63
2022/04/10 06:03:41;;;;;;;11.68;9.02;;;;;;;5.91;70.73;100327.09;4975217;28;20442;-64
2022/04/10 06:06:24;;;;;;;;;;;;;;;5.88;70.52;100327.88;4988642;28;20061;-63
2022/04/10 06:09:08;;;;;;;14.00;8.68;;;;;;;5.89;70.79;100331.31;4975046;28;19925;-64
2022/04/10 06:11:52;;;;;;;10.55;7.72;;;;;;;5.89;70.60;100337.34;4974090;28;20588;-64
2022/04/10 06:14:36;;;;;;;9.23;7.95;;;;;;;5.89;70.43;100339.03;4975351;28;20077;-63
2022/04/10 06:17:20;;;;;;;11.13;9.00;;;;;;;5.89;70.95;100336.47;4974477;28;20050;-63
2022/04/10 06:20:05;;;;;;;15.77;8.18;;;;;;;5.89;70.64;100341.59;4974189;28;20058;-63
2022/04/10 06:22:49;;;;;;;12.55;8.57;;;;;;;5.86;70.54;100339.78;4974789;28;20049;-64
2022/04/10 06:25:33;;;;;;;13.85;7.90;;;;;;;5.83;70.55;100337.09;4974964;28;20097;-63
2022/04/10 06:28:17;;;;;;;10.63;8.77;;;;;;;5.85;70.49;100347.44;4974978;28;20136;-63
2022/04/10 06:31:02;;;;;;;13.90;9.38;;;;;;;5.82;70.72;100345.63;4974592;28;20089;-63
2022/04/10 06:33:46;;;;;;;;;;;;;;;5.81;71.11;100348.16;4975422;28;20061;-63
2022/04/10 06:36:30;;;;;;;14.15;8.15;;;;;;;5.82;70.82;100349.91;4974878;28;19920;-63
2022/04/10 06:39:15;;;;;;;11.57;8.00;;;;;;;5.81;70.50;100345.56;4974881;28;20049;-63
2022/04/10 06:41:59;;;;;;;13.05;9.20;;;;;;;5.80;71.07;100349.81;4973703;28;20053;-63
2022/04/10 06:44:43;;;;;;;14.57;9.35;;;;;;;5.79;71.22;100348.97;4974145;28;20541;-63
2022/04/10 06:47:31;;;;;;;15.73;7.97;;;;;;;5.79;71.01;100360.94;4974755;28;20053;-64
2022/04/10 06:50:15;;;;;;;13.70;8.75;;;;;;;5.79;70.89;100358.34;4973165;28;20132;-63
2022/04/10 06:52:59;;;;;;;13.82;9.10;;;;;;;5.80;71.25;100360.13;4974434;28;20121;-63
2022/04/10 06:55:43;;;;;;;14.85;8.80;;;;;;;5.81;70.89;100364.44;4974518;28;20105;-64
2022/04/10 06:58:27;;;;;;;14.02;7.68;;;;;;;5.77;70.78;100358.31;4974168;28;20074;-64
2022/04/10 07:01:11;;;;;;;14.13;9.05;;;;;;;5.79;70.72;100363.50;4974886;28;20042;-63
2022/04/10 07:03:55;;;;;;;14.63;8.85;;;;;;;5.79;71.41;100366.97;4979270;28;20074;-63
2022/04/10 07:06:39;;;;;;;13.02;9.00;;;;;;;5.81;71.38;100359.31;4994179;28;20097;-63
2022/04/10 07:09:23;;;;;;;;;;;;;;;5.81;70.67;100363.59;4979781;28;20049;-63
2022/04/10 07:12:07;;;;;;;14.68;9.30;;;;;;;5.80;71.13;100367.84;4993634;28;20004;-63
2022/04/10 07:14:51;;;;;;;;;;;;;;;5.78;71.07;100372.03;4979857;28;20111;-64
2022/04/10 07:17:35;;;;;;;15.23;9.35;;;;;;;5.77;70.60;100376.31;4978897;28;19921;-63
2022/04/10 07:20:19;;;;;;;15.65;8.85;;;;;;;5.78;71.24;100372.94;4979154;28;20049;-63
2022/04/10 07:26:06;;;;;;;19.27;10.10;;;;;;;5.77;70.90;100380.56;4993679;28;20044;-64
2022/04/10 07:28:52;;;;;;;27.60;10.52;;;;;;;5.79;71.16;100379.84;4993268;28;20065;-63
2022/04/10 07:31:36;;;;;;;16.42;9.10;;;;;;;5.81;71.15;100379.00;4993999;28;20049;-63
2022/04/10 07:34:20;;;;;;;17.17;10.07;;;;;;;5.78;71.27;100380.66;4993452;28;20049;-63
2022/04/10 07:37:04;;;;;;;18.35;11.30;;;;;;;5.77;70.82;100391.75;4993789;28;20100;-63
2022/04/10 07:39:48;;;;;;;17.73;9.98;;;;;;;5.77;71.21;100399.47;4993645;28;20061;-63
2022/04/10 07:42:38;;;;;;;19.17;10.05;;;;;;;5.77;71.41;100399.47;4993178;28;20050;-63
2022/04/10 07:48:25;;;;;;;14.18;9.52;;;;;;;5.79;71.19;100402.09;4993698;28;20112;-63
2022/04/10 07:51:09;;;;;;;16.02;9.45;;;;;;;5.81;71.41;100408.19;4993531;28;20053;-64
2022/04/10 07:53:55;;;;;;;18.67;10.15;;;;;;;5.79;71.19;100415.84;4993834;28;20525;-63
2022/04/10 07:56:39;;;;;;;17.50;9.75;;;;;;;5.81;71.66;100413.31;4995557;28;20097;-63
2022/04/10 07:59:23;;;;;;;17.08;9.35;;;;;;;5.81;71.17;100420.19;4996483;28;20121;-63
2022/04/10 08:02:07;;;;;;;25.80;10.85;;;;;;;5.82;71.39;100424.50;4996817;28;20059;-63
2022/04/10 08:04:51;;;;;;;11.77;9.10;;;;;;;5.83;71.29;100424.56;4996412;28;20061;-64
2022/04/10 08:07:35;;;;;;;14.80;9.50;;;;;;;5.83;71.14;100418.53;4996694;28;20401;-63
2022/04/10 08:10:19;;;;;;;17.13;9.38;;;;;;;5.83;71.18;100423.69;4996733;28;20453;-63
2022/04/10 08:13:03;;;;;;;21.48;12.27;;;;;;;5.82;71.58;100425.38;4996907;28;20061;-63
2022/04/10 08:15:48;;;;;;;20.05;10.85;;;;;;;5.85;71.12;100429.75;4996496;28;20065;-63
2022/04/10 08:18:32;;;;;;;17.00;10.50;;;;;;;5.86;71.70;100434.97;4996925;28;20468;-63
2022/04/10 08:21:15;;;;;;;19.42;10.38;;;;;;;5.87;71.36;100435.84;4996341;28;20049;-63
2022/04/10 08:24:00;;;;;;;16.55;10.23;;;;;;;5.88;71.05;100438.50;4996841;28;20049;-63
2022/04/10 08:26:44;;;;;;;18.70;9.40;;;;;;;5.90;71.27;100442.03;4981972;28;20050;-63
2022/04/10 08:29:27;;;;;;;20.83;11.15;;;;;;;5.89;71.14;100436.78;4996331;28;20084;-63
2022/04/10 08:32:12;;;;;;;19.17;10.85;;;;;;;5.92;71.70;100447.22;4996366;28;20460;-64
2022/04/10 08:35:02;;;;;;;;;;;;;;;5.92;71.70;100448.06;4996739;28;20512;-64
2022/04/10 08:37:46;;;;;;;16.20;10.35;;;;;;;5.94;71.82;100448.16;4981655;28;20276;-63
2022/04/10 08:40:32;;;;;;;16.92;10.95;;;;;;;5.99;71.96;100448.34;4996395;28;20508;-64
2022/04/10 08:43:18;;;;;;;18.40;12.30;;;;;;;6.00;71.79;100450.13;4981384;28;20065;-63
2022/04/10 08:46:03;;;;;;;17.67;9.82;;;;;;;6.04;71.73;100444.31;4981659;28;20049;-64
2022/04/10 08:48:49;;;;;;;18.30;10.73;;;;;;;6.06;71.68;100450.41;4981235;28;20513;-63
2022/04/10 08:51:32;;;;;;;19.00;10.82;;;;;;;6.09;71.68;100453.06;4981511;28;20053;-63
2022/04/10 08:54:18;;;;;;;17.88;11.00;;;;;;;6.09;72.01;100447.94;4996076;28;20054;-63
2022/04/10 08:57:03;;;;;;;14.82;9.95;;;;;;;6.15;71.84;100455.03;4980900;28;20076;-63
2022/04/10 08:59:47;;;;;;;;;;;;;;;6.16;71.72;100456.78;4996210;28;20045;-64
2022/04/10 09:02:31;;;;;;;19.25;11.18;;;;;;;6.14;72.01;100450.72;4981151;28;19976;-63
2022/04/10 09:05:16;;;;;;;13.25;8.95;;;;;;;6.19;71.01;100456.91;4995781;28;20140;-63
2022/04/10 09:08:08;;;;;;;17.70;9.13;;;;;;;6.19;71.36;100459.47;4994248;28;20053;-64
2022/04/10 09:10:58;;;;;;;16.40;10.57;;;;;;;6.20;71.45;100458.66;4980909;28;20080;-63
2022/04/10 09:13:47;;;;;;;14.98;8.93;;;;;;;6.19;71.43;100469.75;4980903;28;20052;-64
2022/04/10 09:16:31;;;;;;;14.82;9.82;;;;;;;6.20;71.39;100461.22;4981194;28;20081;-63
2022/04/10 09:19:15;;;;;;;13.38;8.65;;;;;;;6.21;71.35;100463.88;4995558;28;20069;-63
2022/04/10 09:22:21;;;;;;;16.88;10.15;;;;;;;6.21;71.19;100470.72;4995450;28;20092;-64
2022/04/10 09:25:16;;;;;;;16.23;8.82;;;;;;;6.20;71.13;100461.22;4995072;28;20184;-63
2022/04/10 09:28:01;;;;;;;12.55;8.20;;;;;;;6.24;71.14;100457.97;4980666;28;20088;-64
2022/04/10 09:30:44;;;;;;;12.98;8.68;;;;;;;6.28;71.55;100458.97;4995133;28;20406;-63
2022/04/10 09:33:47;;;;;;;13.13;7.63;;;;;;;6.32;71.04;100458.28;4995421;28;20092;-63
2022/04/10 09:36:46;;;;;;;14.05;8.15;;;;;;;6.32;71.26;100463.44;4995292;28;20056;-63
2022/04/10 09:39:33;;;;;;;15.30;8.70;;;;;;;6.36;71.49;100463.59;4994885;28;20115;-63
2022/04/10 09:42:17;;;;;;;11.38;7.82;;;;;;;6.38;71.55;100459.41;4994104;28;20051;-63
2022/04/10 09:45:01;;;;;;;13.07;7.35;;;;;;;6.38;71.12;100461.13;4994793;28;20097;-64
2022/04/10 09:47:44;;;;;;;9.90;8.00;;;;;;;6.40;71.12;100462.03;4994717;28;20556;-63
2022/04/10 09:50:32;;;;;;;14.77;8.65;;;;;;;6.37;71.38;100455.06;4994643;28;20592;-63
2022/04/10 09:53:16;;;;;;;10.63;7.30;;;;;;;6.38;71.20;100456.81;4994745;28;20108;-63
2022/04/10 09:56:05;;;;;;;13.57;8.40;;;;;;;6.39;71.42;100450.84;4994805;28;20118;-62
2022/04/10 09:58:49;;;;;;;11.43;7.60;;;;;;;6.42;71.22;100459.53;4995021;28;20056;-63
2022/04/10 10:01:33;;;;;;;10.38;6.82;;;;;;;6.42;71.04;100462.09;4979772;28;20409;-63
2022/04/10 10:04:18;;;;;;;13.43;8.60;;;;;;;6.42;70.98;100455.25;4994364;28;20482;-63
2022/04/10 10:07:03;;;;;;;;;;;;;;;6.43;70.83;100456.13;4994545;28;20108;-63
2022/04/10 10:09:48;;;;;;;15.40;6.95;;;;;;;6.42;71.14;100456.94;4994320;28;19924;-63
2022/04/10 10:12:34;;;;;;;10.10;6.32;;;;;;;6.42;71.49;100449.22;4979811;28;20064;-64
2022/04/10 10:15:19;;;;;;;10.35;7.07;;;;;;;6.43;70.89;100459.56;4993269;28;20048;-63
2022/04/10 10:18:11;;;;;;;9.82;6.53;;;;;;;6.44;71.04;100453.59;4979167;28;20057;-63
2022/04/10 10:20:55;;;;;;;14.93;7.60;;;;;;;6.44;70.88;100457.91;4994080;28;20053;-63
2022/04/10 10:23:43;;;;;;;10.40;7.07;;;;;;;6.45;71.28;100447.63;4994351;28;20054;-64
2022/04/10 10:27:14;;;;;;;9.93;6.72;;;;;;;6.46;70.98;100446.81;4979772;28;20093;-63
2022/04/10 10:30:09;;;;;;;12.38;6.32;;;;;;;6.47;71.07;100450.25;4993575;28;20169;-63
2022/04/10 10:33:11;;;;;;;11.93;6.45;;;;;;;6.48;71.32;100441.72;4979653;28;20049;-63
2022/04/10 10:35:57;;;;;;;13.10;6.45;;;;;;;6.51;70.85;100447.00;4979416;28;20053;-63
2022/04/10 10:38:52;;;;;;;9.18;6.20;;;;;;;6.52;71.30;100446.19;4979785;28;20406;-63
2022/04/10 10:41:38;;;;;;;12.20;6.90;;;;;;;6.52;70.94;100446.19;4979224;28;20421;-63
2022/04/10 10:44:24;;;;;;;11.18;6.20;;;;;;;6.51;71.25;100440.16;4979313;28;20049;-63
2022/04/10 10:47:35;;;;;;;10.82;6.38;;;;;;;6.52;71.14;100444.50;4994081;28;20138;-63
2022/04/10 10:50:29;;;;;;;11.77;6.05;;;;;;;6.56;71.24;100445.50;4993837;28;20572;-63
2022/04/10 10:53:13;;;;;;;9.05;6.68;;;;;;;6.59;70.88;100439.56;4994246;28;20058;-63
2022/04/10 10:55:58;;;;;;;;;;;;;;;6.58;71.24;100448.13;4994111;28;20061;-64
2022/04/10 10:58:43;;;;;;;8.57;5.25;;;;;;;6.57;71.01;100446.34;4979221;28;19920;-63
2022/04/10 11:01:30;;;;;;;10.45;7.22;;;;;;;6.59;70.92;100448.19;4979008;28;20044;-63
2022/04/10 11:04:14;;;;;;;8.13;5.95;;;;;;;6.57;71.00;100454.09;4994030;28;20044;-63
2022/04/10 11:07:19;;;;;;;10.20;6.28;;;;;;;6.55;71.36;100446.31;4993632;28;20476;-63
2022/04/10 11:10:07;;;;;;;8.90;5.35;;;;;;;6.54;70.78;100454.84;4979452;28;20088;-64
2022/04/10 11:12:54;;;;;;;12.02;5.97;;;;;;;6.53;71.45;100451.41;4979454;28;20421;-64
2022/04/10 11:15:53;;;;;;;11.30;6.90;;;;;;;6.52;71.36;100439.34;4978999;28;20084;-63
2022/04/10 11:18:41;;;;;;;9.00;5.80;;;;;;;6.53;71.11;100441.09;4993760;28;20050;-63
2022/04/10 11:21:27;;;;;;;9.38;5.75;;;;;;;6.56;71.14;100445.50;4978742;28;20161;-63
2022/04/10 11:24:22;;;;;;;8.30;6.07;;;;;;;6.55;70.67;100438.59;4993770;28;20625;-64
2022/04/10 11:27:12;;;;;;;9.52;5.50;;;;;;;6.55;70.83;100434.28;4979341;28;20065;-63
2022/04/10 11:30:02;;;;;;;9.23;5.25;;;;;;;6.55;71.12;100429.16;4995168;28;20053;-63
2022/04/10 11:32:54;;;;;;;11.63;6.03;;;;;;;6.57;71.11;100438.63;4996741;28;20097;-64
2022/04/10 11:35:41;;;;;;;11.30;6.32;;;;;;;6.59;70.77;100431.84;4997329;28;20042;-63
2022/04/10 11:38:25;;;;;;;7.82;5.18;;;;;;;6.63;71.15;100437.16;4982252;28;20054;-63
2022/04/10 11:41:10;;;;;;;12.80;5.40;;;;;;;6.64;70.75;100432.91;4982022;28;20049;-63
2022/04/10 11:43:54;;;;;;;8.05;5.45;;;;;;;6.67;70.87;100433.91;4997134;28;20049;-64
2022/04/10 11:46:38;;;;;;;8.68;6.28;;;;;;;6.67;70.58;100431.31;4996754;28;20045;-63
2022/04/10 11:49:22;;;;;;;8.82;5.35;;;;;;;6.70;70.52;100444.31;4997241;28;20077;-63
2022/04/10 11:52:17;;;;;;;9.60;6.63;;;;;;;6.70;70.94;100428.88;4997298;28;20049;-63
2022/04/10 11:55:04;;;;;;;7.03;6.07;;;;;;;6.70;70.80;100430.53;4996380;28;20138;-63
2022/04/10 11:57:48;;;;;;;9.35;5.95;;;;;;;6.70;70.45;100430.53;4981806;28;20049;-63
2022/04/10 12:00:32;;;;;;;11.63;6.07;;;;;;;6.68;70.90;100435.66;4997291;28;20120;-63
2022/04/10 12:03:27;;;;;;;10.43;6.05;;;;;;;6.70;70.83;100436.59;4997237;28;20509;-63
2022/04/10 12:06:19;;;;;;;9.10;5.40;;;;;;;6.71;70.46;100440.03;4981737;28;20049;-63
2022/04/10 12:09:03;;;;;;;8.32;5.15;;;;;;;6.72;70.43;100423.75;4982062;28;20080;-64
2022/04/10 12:11:48;;;;;;;7.47;5.45;;;;;;;6.76;70.72;100432.50;4997009;28;20517;-63
2022/04/10 12:14:32;;;;;;;6.75;5.43;;;;;;;6.80;70.28;100430.09;4996478;28;20065;-63
2022/04/10 12:17:20;;;;;;;9.73;6.05;;;;;;;6.78;70.67;100423.09;4996541;28;20113;-63
2022/04/10 12:20:05;;;;;;;7.65;5.22;;;;;;;6.77;70.66;100411.94;4982082;28;20072;-63
2022/04/10 12:22:48;;;;;;;;;;;;;;;6.77;70.73;100409.38;4982239;28;20053;-63
2022/04/10 12:25:34;;;;;;;10.73;4.90;;;;;;;6.82;70.20;100410.41;4996222;28;19948;-63
2022/04/10 12:28:19;;;;;;;9.02;4.72;;;;;;;6.81;70.28;100402.63;4996510;28;20073;-63
2022/04/10 12:31:04;;;;;;;13.25;6.07;;;;;;;6.82;70.56;100412.09;4995713;28;20053;-64
2022/04/10 12:33:48;;;;;;;;;;;;;;;6.83;70.07;100408.72;4982573;28;20049;-63
2022/04/10 12:36:32;;;;;;;7.65;6.05;;;;;;;6.84;70.49;100402.75;4996419;28;19984;-64
2022/04/10 12:39:26;;;;;;;11.13;5.82;;;;;;;6.85;70.09;100401.91;4996132;28;20141;-63
2022/04/10 12:42:31;;;;;;;8.45;5.32;;;;;;;6.84;70.69;100401.06;4995234;28;20557;-64
2022/04/10 12:45:15;;;;;;;7.75;6.15;;;;;;;6.81;70.54;100392.31;4995858;28;20421;-63
2022/04/10 12:47:59;;;;;;;10.73;5.63;;;;;;;6.80;70.59;100398.28;4996342;28;20084;-63
2022/04/10 12:50:43;;;;;;;;;;;;;;;6.77;70.11;100393.03;4981830;28;20142;-63
2022/04/10 12:53:27;;;;;;;6.47;4.45;;;;;;;6.75;70.66;100394.69;4995759;28;19920;-63
2022/04/10 12:56:19;;;;;;;9.82;4.80;;;;;;;6.75;70.28;100390.38;4996211;28;20081;-63
2022/04/10 12:59:03;;;;;;;9.30;4.82;;;;;;;6.77;70.56;100393.03;4981284;28;20517;-64
2022/04/10 13:01:52;;;;;;;6.72;4.78;;;;;;;6.78;70.14;100392.19;4995835;28;20057;-63
2022/04/10 13:04:36;;;;;;;10.15;4.95;;;;;;;6.80;70.32;100385.41;4981260;28;20045;-63
2022/04/10 13:07:20;;;;;;;11.00;5.70;;;;;;;6.80;70.35;100382.81;4995650;28;20141;-63
2022/04/10 13:10:05;;;;;;;;;;;;;;;6.81;70.18;100385.47;4981705;28;20461;-63